createdAt,value
2019-04-06T00:01:07.951Z,29.23
2019-04-06T00:03:37.929Z,26.25
2019-04-06T00:06:07.512Z,28.32
2019-04-06T00:08:37.051Z,25.20
2019-04-06T00:11:07.622Z,27.20
2019-04-06T00:13:37.154Z,28.25
2019-04-06T00:16:07.687Z,27.20
2019-04-06T00:18:37.204Z,26.12
2019-04-06T00:21:06.891Z,27.58
2019-04-06T00:23:36.407Z,24.87
2019-04-06T00:26:05.987Z,26.55
2019-04-06T00:28:35.558Z,26.95
2019-04-06T00:31:17.084Z,26.33
2019-04-06T00:33:46.771Z,25.15
2019-04-06T00:36:16.536Z,27.58
2019-04-06T00:38:46.600Z,25.48
2019-04-06T00:41:17.993Z,26.95
2019-04-06T00:43:47.559Z,26.27
2019-04-06T00:46:17.785Z,25.35
2019-04-06T00:48:47.342Z,26.93
2019-04-06T00:51:16.965Z,27.93
2019-04-06T00:53:46.517Z,26.50
2019-04-06T00:56:16.472Z,26.42
2019-04-06T00:58:46.517Z,25.75
2019-04-06T01:01:16.656Z,29.00
2019-04-06T01:03:46.389Z,27.82
2019-04-06T01:06:15.996Z,26.02
2019-04-06T01:08:47.914Z,26.90
2019-04-06T01:11:17.619Z,27.40
2019-04-06T01:13:47.721Z,24.98
2019-04-06T01:16:17.535Z,27.02
2019-04-06T01:18:47.085Z,26.30
2019-04-06T01:21:16.736Z,28.27
2019-04-06T01:23:46.249Z,29.50
2019-04-06T01:26:17.037Z,27.27
2019-04-06T01:28:46.672Z,25.25
2019-04-06T01:31:16.453Z,27.40
2019-04-06T01:33:46.057Z,28.60
2019-04-06T01:36:15.696Z,26.82
2019-04-06T01:38:45.303Z,26.15
2019-04-06T01:41:14.992Z,27.25
2019-04-06T01:43:45.166Z,25.17
2019-04-06T01:46:15.327Z,27.90
2019-04-06T01:48:44.979Z,27.27
2019-04-06T01:51:14.582Z,27.10
2019-04-06T01:53:44.214Z,28.30
2019-04-06T01:56:18.730Z,27.85
2019-04-06T01:58:45.424Z,26.45
2019-04-06T02:01:24.920Z,27.05
2019-04-06T02:03:54.485Z,27.52
2019-04-06T02:06:24.159Z,28.70
2019-04-06T02:08:53.961Z,26.12
2019-04-06T02:11:23.735Z,28.00
2019-04-06T02:13:53.281Z,29.00
2019-04-06T02:16:22.793Z,26.60
2019-04-06T02:18:52.276Z,29.70
2019-04-06T02:21:21.833Z,27.32
2019-04-06T02:23:51.356Z,29.67
2019-04-06T02:26:29.711Z,28.75
2019-04-06T02:28:52.117Z,31.52
2019-04-06T02:31:39.561Z,29.00
2019-04-06T02:34:28.382Z,26.62
2019-04-06T02:37:11.375Z,27.80
2019-04-06T02:40:02.956Z,26.57
2019-04-06T02:42:40.813Z,27.20
2019-04-06T02:45:10.638Z,32.10
2019-04-06T02:47:40.198Z,30.05
2019-04-06T02:50:10.011Z,27.22
2019-04-06T02:52:39.599Z,29.00
2019-04-06T02:55:09.266Z,29.40
2019-04-06T02:57:40.012Z,31.50
2019-04-06T03:00:09.823Z,29.67
2019-04-06T03:02:39.327Z,32.13
2019-04-06T03:05:09.089Z,29.23
2019-04-06T03:07:38.700Z,30.95
2019-04-06T03:10:09.138Z,30.12
2019-04-06T03:12:38.833Z,30.32
2019-04-06T03:15:09.241Z,30.62
2019-04-06T03:17:38.782Z,31.05
2019-04-06T03:20:08.352Z,31.97
2019-04-06T03:22:37.999Z,32.40
2019-04-06T03:25:08.106Z,32.15
2019-04-06T03:27:37.652Z,32.28
2019-04-06T03:30:08.212Z,29.60
2019-04-06T03:32:37.819Z,31.60
2019-04-06T03:35:07.521Z,32.30
2019-04-06T03:37:37.023Z,35.60
2019-04-06T03:40:07.103Z,32.93
2019-04-06T03:42:36.730Z,34.10
2019-04-06T03:45:07.362Z,33.65
2019-04-06T03:47:36.832Z,34.90
2019-04-06T03:50:07.543Z,32.05
2019-04-06T03:52:37.108Z,35.75
2019-04-06T03:55:08.584Z,33.42
2019-04-06T03:57:38.068Z,37.55
2019-04-06T04:00:08.399Z,33.48
2019-04-06T04:02:37.913Z,37.30
2019-04-06T04:05:08.368Z,36.20
2019-04-06T04:07:38.171Z,36.75
2019-04-06T04:10:08.575Z,35.38
2019-04-06T04:12:38.203Z,35.45
2019-04-06T04:15:08.152Z,36.98
2019-04-06T04:17:37.716Z,34.75
2019-04-06T04:20:07.677Z,36.75
2019-04-06T04:22:37.413Z,35.92
2019-04-06T04:25:07.066Z,38.13
2019-04-06T04:27:41.159Z,34.90
2019-04-06T04:30:10.949Z,37.15
2019-04-06T04:32:40.459Z,36.75
2019-04-06T04:35:10.081Z,37.78
2019-04-06T04:37:39.934Z,37.38
2019-04-06T04:40:09.577Z,38.88
2019-04-06T04:42:39.178Z,37.45
2019-04-06T04:45:08.815Z,37.48
2019-04-06T04:47:38.347Z,36.30
2019-04-06T04:50:08.266Z,39.08
2019-04-06T04:52:37.741Z,40.25
2019-04-06T04:55:07.963Z,37.30
2019-04-06T04:57:40.587Z,37.80
2019-04-06T05:00:08.904Z,36.77
2019-04-06T05:02:38.848Z,39.18
2019-04-06T05:05:09.665Z,37.73
2019-04-06T05:07:39.544Z,41.18
2019-04-06T05:10:09.447Z,37.33
2019-04-06T05:12:39.025Z,40.75
2019-04-06T05:15:10.713Z,40.17
2019-04-06T05:17:40.224Z,40.23
2019-04-06T05:20:10.297Z,39.40
2019-04-06T05:22:39.930Z,40.78
2019-04-06T05:25:10.025Z,39.20
2019-04-06T05:27:50.773Z,37.38
2019-04-06T05:30:11.433Z,37.83
2019-04-06T05:32:41.028Z,40.85
2019-04-06T05:35:11.154Z,37.98
2019-04-06T05:37:40.761Z,39.35
2019-04-06T05:40:10.578Z,40.33
2019-04-06T05:42:40.247Z,37.53
2019-04-06T05:45:10.076Z,40.85
2019-04-06T05:47:39.795Z,40.30
2019-04-06T05:50:09.488Z,40.92
2019-04-06T05:52:39.396Z,38.08
2019-04-06T05:55:09.312Z,40.30
2019-04-06T05:57:39.110Z,41.18
2019-04-06T06:00:10.122Z,37.93
2019-04-06T06:02:41.320Z,40.17
2019-04-06T06:05:12.757Z,42.23
2019-04-06T06:07:42.247Z,38.67
2019-04-06T06:10:11.754Z,40.38
2019-04-06T06:12:41.278Z,38.00
2019-04-06T06:15:10.920Z,40.78
2019-04-06T06:17:40.381Z,40.05
2019-04-06T06:20:10.539Z,40.98
2019-04-06T06:22:40.256Z,42.98
2019-04-06T06:25:09.944Z,39.23
2019-04-06T06:27:39.641Z,39.50
2019-04-06T06:30:10.664Z,44.33
2019-04-06T06:32:40.215Z,40.90
2019-04-06T06:35:10.395Z,42.27
2019-04-06T06:37:40.176Z,39.75
2019-04-06T06:40:09.982Z,40.83
2019-04-06T06:42:39.561Z,43.20
2019-04-06T06:45:09.255Z,42.08
2019-04-06T06:47:38.833Z,42.20
2019-04-06T06:50:08.569Z,44.10
2019-04-06T06:52:39.531Z,43.15
2019-04-06T06:55:09.267Z,44.18
2019-04-06T06:57:39.527Z,41.55
2019-04-06T07:00:09.283Z,42.43
2019-04-06T07:02:38.919Z,42.70
2019-04-06T07:05:08.515Z,39.83
2019-04-06T07:07:38.194Z,42.73
2019-04-06T07:10:09.210Z,45.70
2019-04-06T07:12:39.609Z,44.50
2019-04-06T07:15:09.616Z,45.03
2019-04-06T07:17:39.263Z,45.60
2019-04-06T07:20:09.252Z,44.70
2019-04-06T07:22:38.861Z,44.40
2019-04-06T07:25:08.510Z,47.25
2019-04-06T07:27:38.040Z,44.65
2019-04-06T07:30:07.864Z,46.58
2019-04-06T07:32:37.452Z,43.25
2019-04-06T07:35:08.216Z,43.45
2019-04-06T07:37:37.733Z,42.55
2019-04-06T07:40:09.378Z,45.63
2019-04-06T07:42:38.943Z,41.55
2019-04-06T07:45:08.725Z,42.15
2019-04-06T07:47:38.745Z,43.13
2019-04-06T07:50:09.992Z,44.18
2019-04-06T07:52:39.523Z,43.28
2019-04-06T07:55:08.947Z,41.50
2019-04-06T07:57:38.714Z,43.38
2019-04-06T08:00:08.899Z,44.65
2019-04-06T08:02:38.385Z,43.10
2019-04-06T08:05:08.231Z,42.17
2019-04-06T08:07:37.684Z,44.25
2019-04-06T08:10:07.914Z,43.40
2019-04-06T08:12:37.620Z,38.63
2019-04-06T08:15:08.198Z,41.05
2019-04-06T08:17:37.906Z,45.73
2019-04-06T08:20:09.073Z,42.88
2019-04-06T08:22:38.605Z,41.02
2019-04-06T08:25:08.793Z,40.92
2019-04-06T08:27:38.366Z,44.30
2019-04-06T08:30:09.219Z,43.00
2019-04-06T08:32:38.920Z,39.48
2019-04-06T08:35:08.781Z,40.58
2019-04-06T08:37:38.620Z,42.10
2019-04-06T08:40:09.008Z,39.07
2019-04-06T08:42:38.475Z,38.90
2019-04-06T08:45:08.580Z,37.60
2019-04-06T08:47:38.263Z,37.20
2019-04-06T08:50:08.658Z,37.77
2019-04-06T08:52:38.297Z,41.47
2019-04-06T08:55:08.245Z,37.60
2019-04-06T08:57:37.949Z,36.67
2019-04-06T09:00:08.512Z,35.03
2019-04-06T09:02:38.011Z,40.43
2019-04-06T09:05:08.056Z,36.70
2019-04-06T09:07:37.474Z,38.50
2019-04-06T09:10:07.755Z,37.93
2019-04-06T09:12:37.321Z,37.17
2019-04-06T09:15:07.238Z,35.50
2019-04-06T09:17:36.776Z,36.67
2019-04-06T09:20:07.762Z,37.87
2019-04-06T09:22:40.644Z,39.23
2019-04-06T09:25:41.242Z,37.77
2019-04-06T09:28:10.870Z,35.57
2019-04-06T09:30:40.504Z,39.10
2019-04-06T09:33:10.010Z,37.20
2019-04-06T09:35:39.569Z,36.07
2019-04-06T09:38:19.071Z,36.17
2019-04-06T09:40:50.056Z,37.60
2019-04-06T09:43:19.536Z,36.80
2019-04-06T09:46:13.752Z,38.13
2019-04-06T09:49:17.160Z,36.43
2019-04-06T09:52:04.334Z,35.47
2019-04-06T09:55:01.906Z,37.70
2019-04-06T09:57:51.806Z,34.37
2019-04-06T10:00:43.568Z,35.40
2019-04-06T10:03:37.918Z,36.47
2019-04-06T10:06:26.768Z,37.07
2019-04-06T10:09:13.283Z,37.07
2019-04-06T10:11:59.094Z,35.23
2019-04-06T10:14:50.707Z,36.47
2019-04-06T10:17:42.442Z,36.03
2019-04-06T10:20:20.276Z,36.30
2019-04-06T10:23:08.769Z,38.30
2019-04-06T10:25:57.212Z,36.90
2019-04-06T10:28:54.618Z,35.07
2019-04-06T10:31:52.152Z,37.00
2019-04-06T10:34:40.661Z,33.87
2019-04-06T10:37:37.264Z,34.93
2019-04-06T10:40:24.999Z,35.37
2019-04-06T10:43:15.082Z,36.63
2019-04-06T10:46:06.474Z,36.10
2019-04-06T10:48:47.620Z,35.70
2019-04-06T10:51:42.549Z,35.80
2019-04-06T10:54:20.471Z,34.53
2019-04-06T10:57:12.638Z,36.60
2019-04-06T11:00:02.243Z,34.90
2019-04-06T11:02:47.510Z,34.40
2019-04-06T11:05:38.893Z,33.63
2019-04-06T11:08:39.578Z,35.87
2019-04-06T11:11:28.207Z,36.00
2019-04-06T11:14:26.271Z,37.00
2019-04-06T11:17:11.198Z,34.00
2019-04-06T11:19:53.938Z,35.17
2019-04-06T11:22:42.384Z,36.07
2019-04-06T11:25:34.243Z,35.33
2019-04-06T11:28:28.782Z,33.53
2019-04-06T11:31:20.089Z,36.33
2019-04-06T11:34:22.268Z,36.10
2019-04-06T11:37:26.486Z,35.50
2019-04-06T11:40:20.739Z,35.83
2019-04-06T11:43:05.094Z,35.67
2019-04-06T11:45:51.933Z,33.20
2019-04-06T11:48:30.098Z,35.97
2019-04-06T11:51:17.662Z,36.13
2019-04-06T11:54:06.177Z,37.63
2019-04-06T11:56:54.615Z,34.60
2019-04-06T11:59:49.157Z,34.40
2019-04-06T12:02:40.606Z,33.30
2019-04-06T12:05:28.268Z,34.33
2019-04-06T12:08:23.307Z,34.07
2019-04-06T12:11:06.591Z,35.87
2019-04-06T12:13:44.740Z,36.63
2019-04-06T12:16:27.342Z,35.53
2019-04-06T12:19:03.558Z,33.47
2019-04-06T12:21:55.067Z,41.08
2019-04-06T12:24:46.351Z,36.17
2019-04-06T12:27:35.599Z,34.37
2019-04-06T12:30:21.943Z,33.40
2019-04-06T12:33:17.543Z,30.70
2019-04-06T12:36:11.954Z,36.33
2019-04-06T12:38:51.538Z,34.90
2019-04-06T12:41:33.365Z,34.53
2019-04-06T12:44:20.902Z,35.13
2019-04-06T12:47:01.962Z,35.87
2019-04-06T12:49:49.316Z,35.00
2019-04-06T12:52:25.148Z,36.93
2019-04-06T12:55:16.595Z,34.40
2019-04-06T12:58:13.960Z,35.33
2019-04-06T13:01:01.697Z,32.90
2019-04-06T13:03:53.242Z,34.93
2019-04-06T13:06:53.899Z,33.43
2019-04-06T13:09:42.440Z,33.87
2019-04-06T13:12:30.975Z,35.50
2019-04-06T13:15:19.140Z,31.83
2019-04-06T13:17:58.301Z,34.30
2019-04-06T13:20:46.383Z,35.00
2019-04-06T13:23:34.969Z,35.47
2019-04-06T13:26:23.741Z,33.10
2019-04-06T13:29:07.766Z,32.57
2019-04-06T13:31:55.574Z,31.20
2019-04-06T13:34:44.080Z,31.97
2019-04-06T13:37:25.387Z,31.30
2019-04-06T13:40:09.379Z,32.37
2019-04-06T13:42:54.491Z,31.33
2019-04-06T13:45:44.129Z,31.53
2019-04-06T13:48:32.558Z,30.90
2019-04-06T13:51:10.926Z,29.23
2019-04-06T13:54:05.603Z,33.07
2019-04-06T13:56:54.059Z,31.63
2019-04-06T13:59:40.938Z,31.93
2019-04-06T14:02:17.644Z,30.30
2019-04-06T14:05:09.585Z,31.37
2019-04-06T14:07:48.823Z,30.90
2019-04-06T14:10:36.234Z,30.00
2019-04-06T14:13:23.373Z,28.50
2019-04-06T14:16:12.075Z,31.60
2019-04-06T14:19:00.439Z,31.47
2019-04-06T14:21:47.518Z,28.47
2019-04-06T14:24:36.557Z,31.73
2019-04-06T14:27:22.606Z,27.40
2019-04-06T14:29:59.106Z,26.37
2019-04-06T14:32:47.594Z,28.27
2019-04-06T14:35:43.431Z,26.00
2019-04-06T14:38:23.318Z,26.17
2019-04-06T14:41:10.407Z,28.27
2019-04-06T14:44:00.180Z,27.57
2019-04-06T14:46:48.938Z,24.90
2019-04-06T14:49:37.731Z,24.43
2019-04-06T14:52:22.945Z,27.23
2019-04-06T14:55:06.553Z,24.53
2019-04-06T14:57:45.262Z,24.03
2019-04-06T15:00:36.237Z,23.43
2019-04-06T15:03:27.612Z,23.33
2019-04-06T15:06:23.607Z,23.47
2019-04-06T15:09:10.994Z,23.37
2019-04-06T15:12:15.735Z,22.77
2019-04-06T15:15:07.101Z,22.90
2019-04-06T15:17:42.763Z,25.20
2019-04-06T15:20:34.317Z,20.93
2019-04-06T15:23:37.636Z,23.73
2019-04-06T15:26:13.798Z,21.60
2019-04-06T15:29:06.545Z,22.10
2019-04-06T15:31:53.623Z,20.30
2019-04-06T15:34:43.025Z,20.97
2019-04-06T15:37:49.979Z,21.10
2019-04-06T15:40:36.997Z,18.83
2019-04-06T15:43:28.306Z,20.33
2019-04-06T15:46:11.909Z,16.93
2019-04-06T15:49:03.422Z,20.20
2019-04-06T15:51:49.838Z,18.47
2019-04-06T15:54:37.146Z,19.27
2019-04-06T15:57:37.490Z,25.13
2019-04-06T16:00:28.488Z,23.60
2019-04-06T16:03:22.963Z,26.60
2019-04-06T16:06:10.903Z,31.73
2019-04-06T16:09:05.714Z,24.70
2019-04-06T16:12:03.461Z,26.40
2019-04-06T16:15:04.240Z,24.20
2019-04-06T16:18:11.063Z,26.60
2019-04-06T16:20:58.951Z,23.40
2019-04-06T16:23:37.454Z,22.90
2019-04-06T16:26:16.496Z,21.37
2019-04-06T16:29:03.909Z,23.90
2019-04-06T16:31:51.081Z,23.80
2019-04-06T16:34:35.264Z,24.37
2019-04-06T16:37:23.778Z,23.80
2019-04-06T16:40:10.980Z,23.00
2019-04-06T16:43:02.929Z,23.83
2019-04-06T16:45:45.490Z,24.73
2019-04-06T16:48:36.887Z,26.10
2019-04-06T16:51:24.160Z,24.20
2019-04-06T16:54:21.414Z,24.70
2019-04-06T16:56:57.982Z,22.80
2019-04-06T16:59:43.891Z,22.70
2019-04-06T17:02:32.385Z,23.37
2019-04-06T17:05:20.862Z,24.43
2019-04-06T17:08:12.153Z,23.30
2019-04-06T17:11:05.792Z,22.40
2019-04-06T17:13:44.407Z,24.20
2019-04-06T17:16:51.461Z,24.30
2019-04-06T17:19:45.988Z,23.50
2019-04-06T17:22:37.039Z,22.27
2019-04-06T17:25:28.944Z,22.20
2019-04-06T17:28:14.653Z,24.67
2019-04-06T17:31:02.445Z,24.27
2019-04-06T17:33:50.822Z,19.70
2019-04-06T17:36:46.970Z,24.50
2019-04-06T17:39:26.474Z,22.07
2019-04-06T17:42:24.003Z,23.37
2019-04-06T17:45:06.935Z,24.27
2019-04-06T17:48:08.116Z,24.57
2019-04-06T17:50:59.898Z,24.03
2019-04-06T17:53:45.082Z,24.40
2019-04-06T17:56:42.621Z,26.37
2019-04-06T17:59:34.969Z,27.13
2019-04-06T18:02:47.374Z,26.47
2019-04-06T18:05:26.590Z,23.20
2019-04-06T18:08:12.571Z,22.83
2019-04-06T18:11:07.835Z,25.07
2019-04-06T18:13:48.259Z,25.43
2019-04-06T18:16:21.010Z,22.97
2019-04-06T18:18:50.955Z,24.70
2019-04-06T18:21:20.658Z,22.90
2019-04-06T18:23:50.609Z,21.57
2019-04-06T18:26:20.272Z,22.33
2019-04-06T18:28:50.825Z,22.97
2019-04-06T18:31:38.385Z,23.40
2019-04-06T18:34:08.377Z,22.00
2019-04-06T18:36:57.231Z,22.13
2019-04-06T18:39:30.278Z,22.80
2019-04-06T18:42:05.216Z,21.00
2019-04-06T18:44:34.022Z,21.13
2019-04-06T18:47:07.621Z,21.70
2019-04-06T18:49:38.623Z,20.83
2019-04-06T18:52:08.581Z,20.37
2019-04-06T18:54:38.114Z,21.00
2019-04-06T18:57:09.906Z,19.93
2019-04-06T18:59:43.818Z,22.00
2019-04-06T19:02:15.513Z,20.43
2019-04-06T19:05:16.060Z,21.27
2019-04-06T19:07:45.604Z,21.23
2019-04-06T19:10:16.399Z,22.23
2019-04-06T19:12:51.093Z,22.60
2019-04-06T19:15:19.728Z,20.10
2019-04-06T19:17:53.308Z,22.00
2019-04-06T19:20:25.941Z,22.53
2019-04-06T19:23:16.258Z,20.07
2019-04-06T19:25:46.747Z,20.67
2019-04-06T19:28:18.490Z,21.37
2019-04-06T19:31:09.329Z,21.70
2019-04-06T19:33:57.970Z,22.13
2019-04-06T19:36:46.621Z,21.00
2019-04-06T19:39:16.213Z,22.20
2019-04-06T19:41:46.098Z,22.20
2019-04-06T19:44:15.974Z,21.03
2019-04-06T19:46:48.375Z,22.33
2019-04-06T19:49:19.726Z,21.80
2019-04-06T19:51:52.211Z,22.63
2019-04-06T19:54:22.267Z,23.67
2019-04-06T19:56:55.163Z,25.00
2019-04-06T19:59:24.840Z,26.10
2019-04-06T20:01:54.787Z,26.70
2019-04-06T20:04:26.534Z,26.33
2019-04-06T20:06:58.455Z,24.37
2019-04-06T20:09:30.772Z,31.07
2019-04-06T20:12:07.236Z,27.40
2019-04-06T20:14:35.245Z,26.63
2019-04-06T20:17:05.292Z,28.77
2019-04-06T20:19:37.395Z,25.70
2019-04-06T20:22:07.677Z,30.20
2019-04-06T20:24:37.534Z,24.90
2019-04-06T20:27:07.250Z,27.33
2019-04-06T20:29:37.953Z,28.20
2019-04-06T20:32:11.067Z,28.77
2019-04-06T20:34:41.301Z,28.10
2019-04-06T20:37:14.895Z,25.87
2019-04-06T20:39:44.683Z,29.23
2019-04-06T20:42:15.566Z,28.37
2019-04-06T20:44:46.157Z,28.27
2019-04-06T20:47:15.741Z,28.87
2019-04-06T20:49:45.300Z,29.13
2019-04-06T20:52:15.079Z,28.70
2019-04-06T20:54:45.095Z,27.23
2019-04-06T20:57:14.671Z,25.73
2019-04-06T20:59:45.981Z,27.27
2019-04-06T21:02:16.155Z,27.83
2019-04-06T21:04:45.814Z,28.70
2019-04-06T21:07:16.007Z,28.90
2019-04-06T21:09:45.716Z,30.80
2019-04-06T21:12:15.946Z,30.23
2019-04-06T21:14:45.878Z,31.80
2019-04-06T21:17:15.381Z,38.77
2019-04-06T21:19:50.682Z,42.53
2019-04-06T21:22:20.335Z,34.43
2019-04-06T21:24:50.538Z,29.30
2019-04-06T21:27:20.577Z,28.30
2019-04-06T21:29:50.698Z,28.10
2019-04-06T21:32:20.724Z,25.83
2019-04-06T21:34:50.611Z,29.30
2019-04-06T21:37:22.727Z,29.73
2019-04-06T21:39:53.225Z,31.43
2019-04-06T21:42:22.863Z,33.40
2019-04-06T21:44:52.333Z,30.33
2019-04-06T21:47:22.011Z,33.70
2019-04-06T21:49:52.197Z,35.67
2019-04-06T21:52:23.032Z,32.33
2019-04-06T21:54:52.576Z,37.63
2019-04-06T21:57:22.008Z,43.20
2019-04-06T21:59:54.042Z,35.07
2019-04-06T22:02:24.087Z,36.67
2019-04-06T22:04:54.449Z,34.17
2019-04-06T22:07:24.283Z,31.83
2019-04-06T22:09:53.859Z,33.33
2019-04-06T22:12:23.888Z,32.33
2019-04-06T22:14:54.188Z,37.20
2019-04-06T22:17:24.416Z,34.30
2019-04-06T22:19:54.082Z,33.67
2019-04-06T22:22:23.552Z,32.97
2019-04-06T22:24:53.884Z,32.20
2019-04-06T22:27:23.336Z,35.30
2019-04-06T22:29:53.241Z,30.33
2019-04-06T22:32:26.744Z,34.30
2019-04-06T22:34:56.704Z,34.53
2019-04-06T22:37:26.303Z,29.77
2019-04-06T22:39:56.118Z,33.40
2019-04-06T22:42:26.108Z,31.17
2019-04-06T22:44:56.039Z,34.60
2019-04-06T22:47:25.695Z,35.07
2019-04-06T22:49:55.127Z,32.03
2019-04-06T22:52:25.052Z,34.18
2019-04-06T22:54:55.765Z,31.97
2019-04-06T22:57:26.051Z,30.63
2019-04-06T22:59:55.499Z,28.50
2019-04-06T23:02:25.931Z,30.52
2019-04-06T23:05:02.918Z,32.13
2019-04-06T23:07:32.729Z,29.80
2019-04-06T23:10:02.866Z,30.50
2019-04-06T23:12:32.518Z,30.90
2019-04-06T23:15:02.046Z,31.73
2019-04-06T23:17:31.871Z,31.63
2019-04-06T23:20:01.433Z,34.43
2019-04-06T23:22:30.908Z,41.23
2019-04-06T23:25:00.400Z,30.73
2019-04-06T23:27:29.894Z,33.18
2019-04-06T23:29:59.915Z,31.93
2019-04-06T23:32:29.620Z,32.43
2019-04-06T23:35:01.994Z,35.20
2019-04-06T23:37:30.271Z,33.25
2019-04-06T23:40:01.599Z,37.55
2019-04-06T23:42:31.851Z,34.83
2019-04-06T23:45:01.266Z,34.38
2019-04-06T23:47:30.720Z,33.23
2019-04-06T23:50:00.217Z,35.50
2019-04-06T23:52:29.721Z,32.35
2019-04-06T23:54:59.224Z,37.90
2019-04-06T23:57:29.146Z,37.10
2019-04-06T23:59:59.313Z,35.50
